createdAt,value
2022-09-24T00:01:40.724Z,78.82
2022-09-24T00:04:10.058Z,79.09
2022-09-24T00:06:38.938Z,78.93
2022-09-24T00:09:06.824Z,79.30
2022-09-24T00:11:35.425Z,79.10
2022-09-24T00:14:06.832Z,79.34
2022-09-24T00:16:34.929Z,79.54
2022-09-24T00:19:03.660Z,80.05
2022-09-24T00:21:32.261Z,80.29
2022-09-24T00:24:01.460Z,80.93
2022-09-24T00:26:46.861Z,81.30
2022-09-24T00:29:17.359Z,81.63
2022-09-24T00:31:45.284Z,82.59
2022-09-24T00:34:13.048Z,82.57
2022-09-24T00:36:40.908Z,82.37
2022-09-24T00:39:08.953Z,82.70
2022-09-24T00:41:37.710Z,82.70
2022-09-24T00:44:20.295Z,83.11
2022-09-24T00:46:49.615Z,83.74
2022-09-24T00:49:18.064Z,84.49
2022-09-24T00:51:48.003Z,85.27
2022-09-24T00:54:18.057Z,85.86
2022-09-24T00:56:48.248Z,86.21
2022-09-24T00:59:17.802Z,86.20
2022-09-24T01:01:45.858Z,86.52
2022-09-24T01:04:15.594Z,86.86
2022-09-24T01:06:43.318Z,87.15
2022-09-24T01:09:11.274Z,87.61
2022-09-24T01:11:45.217Z,88.00
2022-09-24T01:14:23.674Z,88.37
2022-09-24T01:16:53.856Z,88.66
2022-09-24T01:19:34.836Z,88.91
2022-09-24T01:22:04.702Z,89.25
2022-09-24T01:24:44.200Z,89.34
2022-09-24T01:27:14.931Z,89.26
2022-09-24T01:29:53.162Z,89.17
2022-09-24T01:32:30.232Z,89.55
2022-09-24T01:35:02.928Z,89.78
2022-09-24T01:37:33.998Z,89.96
2022-09-24T01:40:02.502Z,90.36
2022-09-24T01:42:31.855Z,90.51
2022-09-24T01:45:02.067Z,90.78
2022-09-24T01:47:34.747Z,91.03
2022-09-24T01:50:03.934Z,91.40
2022-09-24T01:52:35.124Z,91.23
2022-09-24T01:55:05.065Z,91.63
2022-09-24T01:57:34.997Z,91.40
2022-09-24T02:00:09.598Z,91.37
2022-09-24T02:02:39.618Z,91.22
2022-09-24T02:05:12.671Z,91.12
2022-09-24T02:07:43.424Z,91.05
2022-09-24T02:10:14.926Z,91.29
2022-09-24T02:12:44.226Z,91.24
2022-09-24T02:15:17.313Z,91.52
2022-09-24T02:17:46.930Z,91.91
2022-09-24T02:20:16.181Z,91.98
2022-09-24T02:22:44.905Z,92.19
2022-09-24T02:25:14.742Z,92.13
2022-09-24T02:27:42.577Z,92.23
2022-09-24T02:30:10.896Z,92.31
2022-09-24T02:32:42.168Z,92.84
2022-09-24T02:35:10.220Z,92.82
2022-09-24T02:37:39.763Z,92.70
2022-09-24T02:40:09.296Z,92.80
2022-09-24T02:42:37.676Z,92.70
2022-09-24T02:45:06.311Z,93.06
2022-09-24T02:47:34.307Z,92.87
2022-09-24T02:50:03.375Z,93.14
2022-09-24T02:52:31.083Z,93.32
2022-09-24T02:54:58.737Z,93.48
2022-09-24T02:57:26.399Z,93.76
2022-09-24T02:59:54.339Z,93.49
2022-09-24T03:02:22.298Z,93.62
2022-09-24T03:04:50.087Z,94.04
2022-09-24T03:07:19.126Z,94.26
2022-09-24T03:09:46.807Z,94.33
2022-09-24T03:12:14.914Z,94.16
2022-09-24T03:14:42.685Z,94.36
2022-09-24T03:17:10.358Z,94.51
2022-09-24T03:19:38.142Z,94.31
2022-09-24T03:22:05.795Z,94.25
2022-09-24T03:24:35.035Z,94.38
2022-09-24T03:27:04.772Z,94.65
2022-09-24T03:29:49.512Z,94.22
2022-09-24T03:32:17.326Z,94.37
2022-09-24T03:34:45.015Z,94.28
2022-09-24T03:37:12.679Z,94.73
2022-09-24T03:39:41.705Z,94.84
2022-09-24T03:42:09.515Z,94.73
2022-09-24T03:44:37.394Z,94.93
2022-09-24T03:47:05.109Z,94.73
2022-09-24T03:49:32.768Z,94.80
2022-09-24T03:52:00.414Z,94.78
2022-09-24T03:54:28.088Z,95.10
2022-09-24T03:56:57.263Z,94.85
2022-09-24T03:59:25.078Z,95.01
2022-09-24T04:01:52.835Z,95.20
2022-09-24T04:04:20.585Z,95.02
2022-09-24T04:06:48.233Z,94.80
2022-09-24T04:09:16.094Z,94.93
2022-09-24T04:11:44.702Z,95.05
2022-09-24T04:14:13.750Z,95.07
2022-09-24T04:16:41.683Z,94.90
2022-09-24T04:19:09.408Z,95.01
2022-09-24T04:21:37.660Z,94.82
2022-09-24T04:24:05.809Z,95.00
2022-09-24T04:26:33.617Z,95.04
2022-09-24T04:29:01.494Z,94.86
2022-09-24T04:31:33.087Z,95.31
2022-09-24T04:34:01.886Z,95.49
2022-09-24T04:36:29.692Z,95.26
2022-09-24T04:38:57.865Z,95.54
2022-09-24T04:41:25.572Z,95.31
2022-09-24T04:43:53.287Z,95.51
2022-09-24T04:46:21.137Z,95.88
2022-09-24T04:48:50.437Z,95.49
2022-09-24T04:51:19.351Z,95.54
2022-09-24T04:53:47.781Z,95.42
2022-09-24T04:56:15.465Z,95.49
2022-09-24T04:58:43.347Z,95.77
2022-09-24T05:01:13.181Z,95.47
2022-09-24T05:03:41.046Z,95.65
2022-09-24T05:06:10.105Z,95.42
2022-09-24T05:08:37.779Z,95.51
2022-09-24T05:11:05.667Z,95.35
2022-09-24T05:13:33.829Z,95.65
2022-09-24T05:16:01.701Z,95.52
2022-09-24T05:18:29.474Z,95.55
2022-09-24T05:20:57.149Z,95.40
2022-09-24T05:23:26.373Z,95.08
2022-09-24T05:26:12.253Z,95.23
2022-09-24T05:28:40.834Z,95.01
2022-09-24T05:31:09.219Z,94.81
2022-09-24T05:33:37.512Z,95.08
2022-09-24T05:36:05.436Z,94.99
2022-09-24T05:38:34.459Z,94.61
2022-09-24T05:41:03.635Z,94.49
2022-09-24T05:43:31.747Z,94.78
2022-09-24T05:45:59.525Z,94.48
2022-09-24T05:48:27.183Z,94.83
2022-09-24T05:50:56.295Z,94.39
2022-09-24T05:53:24.175Z,94.44
2022-09-24T05:55:53.253Z,94.39
2022-09-24T05:58:21.040Z,94.08
2022-09-24T06:00:49.143Z,94.01
2022-09-24T06:03:17.610Z,93.82
2022-09-24T06:05:47.107Z,93.11
2022-09-24T06:08:16.193Z,92.82
2022-09-24T06:10:45.448Z,92.95
2022-09-24T06:13:15.107Z,92.53
2022-09-24T06:15:43.069Z,92.56
2022-09-24T06:18:11.393Z,92.18
2022-09-24T06:20:40.093Z,91.91
2022-09-24T06:23:07.894Z,91.07
2022-09-24T06:25:35.774Z,90.60
2022-09-24T06:28:04.929Z,90.11
2022-09-24T06:30:35.664Z,90.09
2022-09-24T06:33:05.286Z,89.81
2022-09-24T06:35:34.639Z,89.53
2022-09-24T06:38:02.417Z,89.14
2022-09-24T06:40:35.557Z,88.67
2022-09-24T06:43:05.094Z,87.76
2022-09-24T06:45:34.263Z,86.56
2022-09-24T06:48:02.826Z,86.61
2022-09-24T06:50:31.690Z,86.42
2022-09-24T06:52:59.713Z,83.63
2022-09-24T06:55:27.786Z,83.09
2022-09-24T06:58:02.425Z,82.19
2022-09-24T07:00:30.312Z,81.25
2022-09-24T07:02:59.494Z,80.86
2022-09-24T07:05:27.284Z,80.33
2022-09-24T07:07:55.050Z,79.61
2022-09-24T07:10:25.145Z,78.92
2022-09-24T07:12:53.137Z,78.95
2022-09-24T07:15:22.501Z,78.94
2022-09-24T07:17:50.880Z,77.60
2022-09-24T07:20:19.973Z,77.22
2022-09-24T07:22:47.786Z,75.20
2022-09-24T07:25:15.759Z,75.14
2022-09-24T07:27:43.516Z,75.14
2022-09-24T07:30:11.673Z,74.85
2022-09-24T07:32:39.470Z,74.88
2022-09-24T07:35:07.691Z,74.39
2022-09-24T07:37:36.993Z,74.71
2022-09-24T07:40:04.902Z,74.19
2022-09-24T07:42:32.762Z,73.66
2022-09-24T07:45:00.859Z,73.49
2022-09-24T07:47:28.644Z,73.41
2022-09-24T07:49:56.649Z,73.40
2022-09-24T07:52:24.394Z,73.86
2022-09-24T07:54:54.160Z,73.44
2022-09-24T07:57:21.890Z,73.81
2022-09-24T07:59:51.466Z,74.99
2022-09-24T08:02:19.586Z,75.58
2022-09-24T08:04:48.193Z,75.24
2022-09-24T08:07:15.998Z,74.89
2022-09-24T08:09:43.738Z,74.37
2022-09-24T08:12:13.054Z,73.44
2022-09-24T08:14:41.748Z,72.20
2022-09-24T08:17:09.482Z,71.22
2022-09-24T08:19:37.222Z,70.59
2022-09-24T08:22:05.230Z,69.67
2022-09-24T08:24:32.994Z,69.07
2022-09-24T08:27:01.043Z,68.58
2022-09-24T08:29:30.214Z,67.33
2022-09-24T08:31:57.984Z,65.19
2022-09-24T08:34:26.010Z,65.29
2022-09-24T08:36:53.745Z,65.31
2022-09-24T08:39:21.705Z,63.45
2022-09-24T08:41:55.959Z,62.42
2022-09-24T08:44:47.463Z,61.87
2022-09-24T08:47:24.416Z,62.24
2022-09-24T08:50:08.038Z,63.30
2022-09-24T08:52:41.620Z,62.60
2022-09-24T08:55:13.211Z,62.23
2022-09-24T08:57:45.635Z,60.90
2022-09-24T09:00:15.413Z,58.73
2022-09-24T09:02:47.011Z,57.96
2022-09-24T09:05:20.585Z,55.68
2022-09-24T09:07:52.975Z,54.75
2022-09-24T09:10:28.933Z,57.66
2022-09-24T09:12:58.905Z,56.97
2022-09-24T09:15:29.366Z,54.79
2022-09-24T09:18:00.675Z,55.72
2022-09-24T09:20:31.207Z,54.20
2022-09-24T09:23:01.115Z,53.97
2022-09-24T09:25:31.757Z,55.34
2022-09-24T09:28:00.843Z,54.90
2022-09-24T09:30:31.882Z,54.20
2022-09-24T09:33:10.028Z,54.32
2022-09-24T09:35:43.203Z,54.87
2022-09-24T09:38:19.078Z,55.24
2022-09-24T09:40:50.469Z,55.14
2022-09-24T09:43:18.850Z,56.03
2022-09-24T09:45:53.298Z,55.73
2022-09-24T09:48:24.342Z,55.35
2022-09-24T09:50:54.293Z,54.09
2022-09-24T09:53:23.098Z,54.72
2022-09-24T09:55:55.430Z,54.84
2022-09-24T09:58:24.435Z,53.54
2022-09-24T10:00:52.399Z,53.04
2022-09-24T10:03:24.460Z,53.40
2022-09-24T10:05:53.797Z,53.15
2022-09-24T10:08:22.031Z,54.68
2022-09-24T10:10:56.147Z,52.77
2022-09-24T10:13:24.695Z,51.85
2022-09-24T10:15:53.456Z,52.26
2022-09-24T10:18:29.557Z,50.24
2022-09-24T10:20:58.106Z,50.90
2022-09-24T10:23:30.876Z,50.65
2022-09-24T10:26:00.552Z,50.04
2022-09-24T10:28:46.189Z,51.32
2022-09-24T10:31:15.969Z,51.37
2022-09-24T10:33:46.576Z,51.16
2022-09-24T10:36:15.858Z,49.90
2022-09-24T10:38:43.629Z,48.60
2022-09-24T10:41:15.684Z,49.68
2022-09-24T10:43:51.100Z,49.86
2022-09-24T10:46:29.042Z,49.50
2022-09-24T10:49:02.433Z,49.47
2022-09-24T10:51:36.609Z,50.00
2022-09-24T10:54:13.939Z,51.40
2022-09-24T10:56:46.386Z,51.37
2022-09-24T10:59:21.650Z,51.74
2022-09-24T11:01:55.060Z,54.06
2022-09-24T11:04:36.412Z,55.32
2022-09-24T11:07:22.186Z,56.41
2022-09-24T11:09:55.175Z,57.96
2022-09-24T11:12:30.218Z,58.18
2022-09-24T11:15:06.796Z,58.55
2022-09-24T11:17:35.713Z,58.81
2022-09-24T11:20:21.353Z,60.17
2022-09-24T11:22:58.954Z,60.39
2022-09-24T11:25:33.761Z,61.17
2022-09-24T11:28:07.341Z,60.65
2022-09-24T11:30:39.412Z,60.95
2022-09-24T11:33:12.684Z,62.18
2022-09-24T11:35:48.127Z,62.63
2022-09-24T11:38:22.409Z,62.81
2022-09-24T11:40:59.899Z,64.33
2022-09-24T11:43:37.678Z,65.50
2022-09-24T11:46:12.980Z,66.97
2022-09-24T11:48:52.159Z,68.17
2022-09-24T11:51:26.534Z,70.43
2022-09-24T11:53:58.526Z,71.30
2022-09-24T11:56:29.731Z,72.36
2022-09-24T11:59:00.215Z,70.32
2022-09-24T12:01:29.665Z,69.88
2022-09-24T12:03:59.913Z,69.42
2022-09-24T12:06:31.148Z,69.31
2022-09-24T12:09:02.841Z,67.82
2022-09-24T12:11:34.273Z,65.94
2022-09-24T12:14:04.359Z,60.73
2022-09-24T12:16:36.959Z,58.56
2022-09-24T12:19:10.154Z,58.49
2022-09-24T12:21:40.496Z,57.44
2022-09-24T12:24:13.552Z,56.89
2022-09-24T12:26:42.840Z,58.20
2022-09-24T12:29:40.962Z,59.14
2022-09-24T12:32:33.924Z,58.14
2022-09-24T12:35:08.725Z,59.33
2022-09-24T12:37:39.505Z,59.78
2022-09-24T12:40:19.039Z,60.21
2022-09-24T12:42:50.652Z,60.43
2022-09-24T12:45:21.001Z,61.41
2022-09-24T12:47:51.259Z,61.86
2022-09-24T12:50:22.293Z,63.20
2022-09-24T12:52:50.213Z,63.24
2022-09-24T12:55:23.500Z,62.42
2022-09-24T12:57:52.657Z,62.44
2022-09-24T13:00:38.306Z,62.66
2022-09-24T13:03:07.208Z,63.73
2022-09-24T13:05:46.985Z,63.91
2022-09-24T13:08:25.503Z,64.04
2022-09-24T13:11:00.501Z,63.25
2022-09-24T13:13:29.594Z,63.76
2022-09-24T13:16:00.811Z,63.15
2022-09-24T13:18:29.425Z,62.53
2022-09-24T13:20:59.878Z,61.24
2022-09-24T13:23:31.940Z,61.50
2022-09-24T13:26:02.905Z,59.87
2022-09-24T13:28:38.729Z,60.50
2022-09-24T13:31:11.733Z,60.98
2022-09-24T13:33:41.462Z,60.76
2022-09-24T13:36:13.440Z,59.96
2022-09-24T13:38:46.030Z,59.68
2022-09-24T13:41:23.037Z,58.33
2022-09-24T13:43:53.536Z,58.13
2022-09-24T13:46:21.986Z,57.44
2022-09-24T13:48:51.933Z,56.58
2022-09-24T13:51:22.539Z,57.44
2022-09-24T13:53:53.100Z,58.70
2022-09-24T13:56:23.173Z,57.99
2022-09-24T13:58:51.635Z,57.92
2022-09-24T14:01:20.352Z,58.62
2022-09-24T14:03:55.638Z,57.91
2022-09-24T14:06:34.326Z,59.08
2022-09-24T14:09:02.390Z,57.94
2022-09-24T14:11:31.651Z,58.82
2022-09-24T14:14:11.148Z,59.94
2022-09-24T14:16:39.017Z,60.77
2022-09-24T14:19:06.992Z,60.77
2022-09-24T14:21:37.309Z,60.84
2022-09-24T14:24:06.814Z,61.22
2022-09-24T14:26:37.678Z,62.14
2022-09-24T14:29:08.369Z,63.28
2022-09-24T14:31:43.842Z,64.59
2022-09-24T14:34:21.923Z,64.98
2022-09-24T14:36:51.057Z,64.51
2022-09-24T14:39:18.831Z,64.91
2022-09-24T14:41:47.941Z,65.74
2022-09-24T14:44:20.772Z,65.44
2022-09-24T14:46:51.122Z,66.40
2022-09-24T14:49:21.242Z,66.85
2022-09-24T14:51:52.793Z,66.61
2022-09-24T14:54:22.315Z,67.29
2022-09-24T14:56:52.159Z,68.31
2022-09-24T14:59:28.642Z,68.15
2022-09-24T15:02:04.531Z,68.71
2022-09-24T15:04:33.045Z,67.65
2022-09-24T15:07:01.084Z,67.20
2022-09-24T15:09:29.768Z,67.85
2022-09-24T15:12:09.278Z,67.49
2022-09-24T15:14:37.502Z,67.97
2022-09-24T15:17:10.463Z,67.67
2022-09-24T15:19:42.982Z,67.54
2022-09-24T15:22:10.967Z,67.09
2022-09-24T15:24:38.866Z,68.28
2022-09-24T15:27:16.133Z,68.57
2022-09-24T15:29:44.033Z,68.62
2022-09-24T15:32:15.478Z,68.69
2022-09-24T15:34:43.405Z,68.55
2022-09-24T15:37:12.575Z,68.93
2022-09-24T15:39:46.322Z,69.03
2022-09-24T15:42:15.620Z,68.80
2022-09-24T15:44:43.771Z,69.53
2022-09-24T15:47:11.920Z,69.54
2022-09-24T15:49:39.730Z,69.49
2022-09-24T15:52:08.331Z,69.80
2022-09-24T15:54:36.239Z,70.45
2022-09-24T15:57:04.262Z,70.56
2022-09-24T15:59:33.497Z,70.41
2022-09-24T16:02:03.228Z,69.66
2022-09-24T16:04:31.111Z,70.26
2022-09-24T16:06:59.435Z,70.27
2022-09-24T16:09:27.178Z,70.59
2022-09-24T16:11:55.329Z,70.90
2022-09-24T16:14:23.047Z,71.14
2022-09-24T16:16:52.187Z,71.20
2022-09-24T16:19:20.111Z,71.10
2022-09-24T16:21:49.013Z,70.84
2022-09-24T16:24:16.724Z,71.28
2022-09-24T16:26:44.516Z,71.01
2022-09-24T16:29:12.790Z,71.54
2022-09-24T16:31:40.787Z,71.88
2022-09-24T16:34:09.996Z,72.15
2022-09-24T16:36:38.134Z,72.57
2022-09-24T16:39:06.097Z,73.03
2022-09-24T16:41:36.890Z,73.12
2022-09-24T16:44:05.199Z,73.26
2022-09-24T16:46:33.035Z,73.08
2022-09-24T16:49:00.839Z,73.75
2022-09-24T16:51:30.195Z,73.25
2022-09-24T16:53:57.976Z,73.28
2022-09-24T16:56:25.950Z,73.79
2022-09-24T16:58:54.350Z,74.21
2022-09-24T17:01:22.681Z,74.28
2022-09-24T17:03:53.614Z,74.57
2022-09-24T17:06:23.091Z,74.90
2022-09-24T17:09:09.893Z,75.24
2022-09-24T17:11:40.004Z,75.43
2022-09-24T17:14:08.141Z,75.88
2022-09-24T17:16:35.937Z,75.88
2022-09-24T17:19:03.824Z,76.11
2022-09-24T17:21:31.744Z,76.09
2022-09-24T17:24:00.993Z,76.35
2022-09-24T17:26:28.730Z,76.60
2022-09-24T17:28:56.491Z,76.75
2022-09-24T17:31:25.671Z,77.29
2022-09-24T17:33:56.014Z,77.68
2022-09-24T17:36:24.622Z,77.74
2022-09-24T17:38:52.757Z,78.19
2022-09-24T17:41:23.104Z,78.14
2022-09-24T17:43:51.298Z,78.30
2022-09-24T17:46:21.712Z,78.69
2022-09-24T17:48:51.222Z,78.83
2022-09-24T17:51:20.135Z,78.45
2022-09-24T17:53:48.098Z,77.92
2022-09-24T17:56:16.061Z,77.41
2022-09-24T17:58:46.781Z,77.46
2022-09-24T18:01:15.463Z,77.62
2022-09-24T18:03:43.278Z,77.78
2022-09-24T18:06:12.189Z,77.54
2022-09-24T18:08:40.802Z,77.20
2022-09-24T18:11:09.873Z,77.53
2022-09-24T18:13:38.639Z,77.00
2022-09-24T18:16:09.282Z,77.21
2022-09-24T18:18:37.365Z,77.40
2022-09-24T18:21:06.108Z,77.56
2022-09-24T18:23:34.963Z,77.73
2022-09-24T18:26:10.637Z,77.11
2022-09-24T18:28:39.314Z,77.50
2022-09-24T18:31:09.412Z,77.67
2022-09-24T18:33:38.721Z,78.15
2022-09-24T18:36:07.844Z,78.22
2022-09-24T18:38:35.850Z,78.34
2022-09-24T18:41:07.490Z,78.56
2022-09-24T18:43:35.391Z,78.54
2022-09-24T18:46:04.120Z,78.50
2022-09-24T18:48:33.579Z,78.74
2022-09-24T18:51:01.373Z,78.66
2022-09-24T18:53:31.258Z,79.02
2022-09-24T18:55:59.617Z,79.41
2022-09-24T18:58:27.352Z,79.44
2022-09-24T19:00:58.837Z,79.61
2022-09-24T19:03:28.308Z,79.61
2022-09-24T19:06:01.255Z,79.65
2022-09-24T19:08:30.365Z,79.67
2022-09-24T19:11:01.849Z,79.51
2022-09-24T19:13:30.044Z,79.76
2022-09-24T19:15:57.828Z,79.91
2022-09-24T19:18:26.275Z,80.10
2022-09-24T19:20:57.389Z,80.33
2022-09-24T19:23:26.655Z,80.37
2022-09-24T19:26:00.441Z,80.55
2022-09-24T19:28:28.350Z,80.69
2022-09-24T19:30:56.409Z,80.74
2022-09-24T19:33:24.730Z,80.80
2022-09-24T19:35:56.078Z,80.31
2022-09-24T19:38:25.516Z,80.71
2022-09-24T19:40:58.869Z,81.03
2022-09-24T19:43:27.204Z,81.21
2022-09-24T19:45:55.857Z,81.21
2022-09-24T19:48:23.680Z,80.85
2022-09-24T19:50:51.493Z,81.11
2022-09-24T19:53:19.236Z,81.28
2022-09-24T19:55:47.150Z,81.69
2022-09-24T19:58:16.586Z,81.33
2022-09-24T20:00:44.324Z,81.58
2022-09-24T20:03:13.200Z,81.59
2022-09-24T20:05:41.794Z,82.10
2022-09-24T20:08:12.351Z,81.92
2022-09-24T20:10:41.066Z,82.05
2022-09-24T20:13:10.577Z,81.97
2022-09-24T20:15:39.810Z,81.77
2022-09-24T20:18:08.144Z,81.97
2022-09-24T20:20:36.226Z,81.98
2022-09-24T20:23:03.980Z,82.00
2022-09-24T20:25:49.250Z,81.93
2022-09-24T20:28:17.174Z,82.01
2022-09-24T20:30:46.591Z,81.85
2022-09-24T20:33:14.409Z,82.18
2022-09-24T20:35:42.182Z,82.23
2022-09-24T20:38:10.290Z,81.94
2022-09-24T20:40:40.667Z,82.23
2022-09-24T20:43:08.495Z,82.43
2022-09-24T20:45:39.978Z,82.46
2022-09-24T20:48:09.269Z,82.52
2022-09-24T20:50:37.046Z,83.04
2022-09-24T20:53:04.889Z,82.68
2022-09-24T20:55:32.654Z,82.77
2022-09-24T20:58:00.440Z,82.58
2022-09-24T21:00:34.024Z,82.44
2022-09-24T21:03:15.198Z,82.72
2022-09-24T21:05:51.287Z,82.69
2022-09-24T21:08:19.054Z,82.70
2022-09-24T21:10:47.139Z,82.86
2022-09-24T21:13:14.883Z,82.79
2022-09-24T21:15:42.694Z,82.11
2022-09-24T21:18:22.753Z,82.39
2022-09-24T21:20:52.840Z,82.75
2022-09-24T21:23:21.895Z,82.93
2022-09-24T21:25:54.356Z,83.13
2022-09-24T21:28:22.745Z,82.53
2022-09-24T21:30:56.863Z,82.31
2022-09-24T21:33:24.763Z,82.39
2022-09-24T21:35:54.430Z,82.35
2022-09-24T21:38:22.269Z,81.97
2022-09-24T21:40:52.932Z,81.93
2022-09-24T21:43:25.238Z,82.15
2022-09-24T21:45:55.075Z,82.09
2022-09-24T21:48:25.910Z,81.32
2022-09-24T21:50:56.333Z,81.65
2022-09-24T21:53:24.101Z,81.66
2022-09-24T21:55:52.038Z,81.89
2022-09-24T21:58:20.186Z,82.33
2022-09-24T22:00:47.919Z,82.06
2022-09-24T22:03:16.023Z,81.55
2022-09-24T22:05:43.811Z,81.38
2022-09-24T22:08:13.039Z,80.88
2022-09-24T22:10:41.183Z,81.38
2022-09-24T22:13:09.631Z,81.22
2022-09-24T22:15:37.683Z,80.87
2022-09-24T22:18:05.571Z,81.36
2022-09-24T22:20:33.437Z,81.49
2022-09-24T22:23:01.168Z,81.46
2022-09-24T22:25:31.274Z,81.47
2022-09-24T22:27:59.152Z,81.47
2022-09-24T22:30:27.003Z,81.69
2022-09-24T22:32:54.795Z,81.56
2022-09-24T22:35:43.230Z,81.41
2022-09-24T22:38:12.376Z,81.39
2022-09-24T22:40:41.545Z,81.90
2022-09-24T22:43:09.323Z,81.58
2022-09-24T22:45:37.076Z,81.71
2022-09-24T22:48:04.889Z,81.76
2022-09-24T22:50:32.814Z,82.04
2022-09-24T22:53:01.855Z,81.62
2022-09-24T22:55:29.790Z,82.20
2022-09-24T22:57:58.868Z,81.88
2022-09-24T23:00:26.668Z,82.25
2022-09-24T23:02:54.605Z,82.55
2022-09-24T23:05:22.426Z,83.08
2022-09-24T23:07:50.178Z,83.20
2022-09-24T23:10:17.958Z,83.65
2022-09-24T23:12:45.738Z,82.97
2022-09-24T23:15:15.247Z,83.31
2022-09-24T23:17:43.080Z,83.76
2022-09-24T23:20:11.615Z,83.80
2022-09-24T23:22:39.358Z,84.00
2022-09-24T23:25:07.839Z,83.57
2022-09-24T23:27:36.763Z,83.74
2022-09-24T23:30:04.872Z,84.19
2022-09-24T23:32:34.015Z,84.20
2022-09-24T23:35:01.860Z,84.26
2022-09-24T23:37:29.762Z,84.37
2022-09-24T23:39:57.647Z,84.38
2022-09-24T23:42:25.391Z,84.81
2022-09-24T23:44:53.479Z,84.52
2022-09-24T23:47:21.219Z,84.71
2022-09-24T23:49:50.315Z,84.62
2022-09-24T23:52:18.201Z,84.79
2022-09-24T23:54:46.101Z,84.72
2022-09-24T23:57:13.843Z,84.48
2022-09-24T23:59:41.606Z,84.09
